createdAt,value
2022-08-03T00:02:21.188Z,94472.00
2022-08-03T00:06:23.386Z,94475.00
2022-08-03T00:10:25.551Z,94476.00
2022-08-03T00:14:27.774Z,94470.00
2022-08-03T00:18:29.886Z,94469.00
2022-08-03T00:22:35.397Z,94468.00
2022-08-03T00:26:38.102Z,94466.00
2022-08-03T00:30:40.138Z,94459.00
2022-08-03T00:34:57.639Z,94460.00
2022-08-03T00:39:01.182Z,94471.00
2022-08-03T00:43:06.073Z,94460.00
2022-08-03T00:47:10.392Z,94461.00
2022-08-03T00:51:12.634Z,94456.00
2022-08-03T00:55:15.130Z,94456.00
2022-08-03T00:59:18.482Z,94453.00
2022-08-03T01:03:20.717Z,94461.00
2022-08-03T01:07:28.990Z,94456.00
2022-08-03T01:12:00.896Z,94458.00
2022-08-03T01:16:18.303Z,94461.00
2022-08-03T01:20:22.484Z,94464.00
2022-08-03T01:24:51.279Z,94461.00
2022-08-03T01:29:09.367Z,94454.00
2022-08-03T01:33:31.301Z,94453.00
2022-08-03T01:37:52.269Z,94444.00
2022-08-03T01:41:59.718Z,94446.00
2022-08-03T01:46:03.442Z,94444.00
2022-08-03T01:50:07.522Z,94443.00
2022-08-03T01:54:12.083Z,94438.00
2022-08-03T01:58:18.877Z,94444.00
2022-08-03T02:02:32.132Z,94446.00
2022-08-03T02:07:01.549Z,94448.00
2022-08-03T02:11:02.669Z,94428.00
2022-08-03T02:15:05.845Z,94427.00
2022-08-03T02:19:11.035Z,94429.00
2022-08-03T02:23:15.924Z,94435.00
2022-08-03T02:27:27.864Z,94429.00
2022-08-03T02:31:33.360Z,94425.00
2022-08-03T02:35:36.363Z,94425.00
2022-08-03T02:39:42.017Z,94429.00
2022-08-03T02:44:06.222Z,94426.00
2022-08-03T02:48:11.701Z,94426.00
2022-08-03T02:52:16.971Z,94429.00
2022-08-03T02:56:20.237Z,94434.00
2022-08-03T03:00:28.516Z,94420.00
2022-08-03T03:04:33.056Z,94423.00
2022-08-03T03:08:35.621Z,94429.00
2022-08-03T03:12:42.723Z,94425.00
2022-08-03T03:16:46.253Z,94432.00
2022-08-03T03:20:54.682Z,94434.00
2022-08-03T03:24:58.274Z,94440.00
2022-08-03T03:29:02.668Z,94437.00
2022-08-03T03:33:05.358Z,94441.00
2022-08-03T03:37:07.352Z,94434.00
2022-08-03T03:41:10.585Z,94435.00
2022-08-03T03:45:13.444Z,94436.00
2022-08-03T03:49:15.459Z,94438.00
2022-08-03T03:53:18.013Z,94423.00
2022-08-03T03:57:19.981Z,94418.00
2022-08-03T04:01:23.077Z,94417.00
2022-08-03T04:06:03.377Z,94419.00
2022-08-03T04:10:37.627Z,94414.00
2022-08-03T04:14:41.111Z,94422.00
2022-08-03T04:18:48.668Z,94420.00
2022-08-03T04:22:53.224Z,94422.00
2022-08-03T04:26:57.488Z,94424.00
2022-08-03T04:31:05.455Z,94426.00
2022-08-03T04:35:08.374Z,94425.00
2022-08-03T04:39:20.192Z,94428.00
2022-08-03T04:43:25.626Z,94429.00
2022-08-03T04:47:27.861Z,94433.00
2022-08-03T04:51:30.460Z,94428.00
2022-08-03T04:55:34.610Z,94438.00
2022-08-03T04:59:39.118Z,94445.00
2022-08-03T05:03:43.036Z,94443.00
2022-08-03T05:07:45.263Z,94444.00
2022-08-03T05:11:47.389Z,94374.00
2022-08-03T05:15:49.507Z,94382.00
2022-08-03T05:19:51.568Z,94368.00
2022-08-03T05:23:53.929Z,94363.00
2022-08-03T05:27:55.994Z,94379.00
2022-08-03T05:31:58.146Z,94377.00
2022-08-03T05:36:03.407Z,94454.00
2022-08-03T05:40:06.733Z,94452.00
2022-08-03T05:44:08.878Z,94462.00
2022-08-03T05:48:10.819Z,94464.00
2022-08-03T05:52:14.336Z,94467.00
2022-08-03T05:56:24.340Z,94467.00
2022-08-03T06:00:26.508Z,94476.00
2022-08-03T06:04:29.229Z,94497.00
2022-08-03T06:08:31.270Z,94509.00
2022-08-03T06:12:36.336Z,94516.00
2022-08-03T06:16:38.368Z,94520.00
2022-08-03T06:20:40.541Z,94512.00
2022-08-03T06:24:45.070Z,94514.00
2022-08-03T06:28:55.958Z,94522.00
2022-08-03T06:32:58.141Z,94526.00
2022-08-03T06:37:02.281Z,94525.00
2022-08-03T06:41:04.494Z,94524.00
2022-08-03T06:45:09.052Z,94529.00
2022-08-03T06:49:11.371Z,94530.00
2022-08-03T06:53:19.842Z,94539.00
2022-08-03T06:57:25.471Z,94538.00
2022-08-03T07:01:27.642Z,94527.00
2022-08-03T07:05:30.834Z,94529.00
2022-08-03T07:09:32.945Z,94537.00
2022-08-03T07:13:35.848Z,94540.00
2022-08-03T07:17:38.601Z,94539.00
2022-08-03T07:21:41.181Z,94539.00
2022-08-03T07:25:43.685Z,94540.00
2022-08-03T07:29:45.787Z,94541.00
2022-08-03T07:33:48.382Z,94538.00
2022-08-03T07:37:54.722Z,94536.00
2022-08-03T07:41:57.241Z,94543.00
2022-08-03T07:45:59.425Z,94529.00
2022-08-03T07:50:01.631Z,94534.00
2022-08-03T07:54:04.944Z,94531.00
2022-08-03T07:58:10.127Z,94535.00
2022-08-03T08:02:12.578Z,94541.00
2022-08-03T08:06:15.478Z,94537.00
2022-08-03T08:10:17.726Z,94537.00
2022-08-03T08:14:19.957Z,94537.00
2022-08-03T08:18:22.215Z,94531.00
2022-08-03T08:22:30.509Z,94528.00
2022-08-03T08:26:35.418Z,94537.00
2022-08-03T08:30:37.391Z,94537.00
2022-08-03T08:34:39.518Z,94544.00
2022-08-03T08:38:42.859Z,94547.00
2022-08-03T08:42:57.899Z,94533.00
2022-08-03T08:47:03.391Z,94537.00
2022-08-03T08:51:06.282Z,94541.00
2022-08-03T08:55:11.705Z,94530.00
2022-08-03T08:59:15.143Z,94541.00
2022-08-03T09:03:22.692Z,94536.00
2022-08-03T09:07:32.940Z,94534.00
2022-08-03T09:11:52.369Z,94537.00
2022-08-03T09:16:19.952Z,94535.00
2022-08-03T09:20:25.312Z,94535.00
2022-08-03T09:24:40.617Z,94538.00
2022-08-03T09:28:59.388Z,94534.00
2022-08-03T09:33:05.506Z,94527.00
2022-08-03T09:37:16.287Z,94528.00
2022-08-03T09:41:19.999Z,94537.00
2022-08-03T09:45:30.276Z,94526.00
2022-08-03T09:49:33.084Z,94527.00
2022-08-03T09:53:59.222Z,94524.00
2022-08-03T09:58:09.757Z,94520.00
2022-08-03T10:02:22.859Z,94515.00
2022-08-03T10:06:28.782Z,94521.00
2022-08-03T10:10:44.049Z,94517.00
2022-08-03T10:14:47.331Z,94513.00
2022-08-03T10:18:49.765Z,94510.00
2022-08-03T10:22:52.843Z,94510.00
2022-08-03T10:27:07.501Z,94514.00
2022-08-03T10:31:13.358Z,94509.00
2022-08-03T10:35:21.432Z,94514.00
2022-08-03T10:39:29.210Z,94515.00
2022-08-03T10:43:46.288Z,94506.00
2022-08-03T10:47:50.235Z,94515.00
2022-08-03T10:51:54.432Z,94508.00
2022-08-03T10:56:16.998Z,94510.00
2022-08-03T11:00:30.606Z,94506.00
2022-08-03T11:04:33.344Z,94508.00
2022-08-03T11:08:36.485Z,94500.00
2022-08-03T11:12:39.030Z,94495.00
2022-08-03T11:17:03.367Z,94500.00
2022-08-03T11:21:06.245Z,94498.00
2022-08-03T11:25:08.769Z,94492.00
2022-08-03T11:29:32.305Z,94498.00
2022-08-03T11:33:34.786Z,94502.00
2022-08-03T11:38:03.015Z,94496.00
2022-08-03T11:42:29.175Z,94497.00
2022-08-03T11:46:37.965Z,94489.00
2022-08-03T11:50:40.307Z,94499.00
2022-08-03T11:54:44.177Z,94487.00
2022-08-03T11:59:10.816Z,94493.00
2022-08-03T12:03:20.092Z,94489.00
2022-08-03T12:07:24.394Z,94486.00
2022-08-03T12:11:59.353Z,94490.00
2022-08-03T12:16:02.631Z,94487.00
2022-08-03T12:20:07.450Z,94484.00
2022-08-03T12:24:09.641Z,94473.00
2022-08-03T12:28:37.266Z,94477.00
2022-08-03T12:32:44.426Z,94476.00
2022-08-03T12:36:58.255Z,94472.00
2022-08-03T12:41:05.273Z,94477.00
2022-08-03T12:45:21.527Z,94465.00
2022-08-03T12:49:23.922Z,94462.00
2022-08-03T12:53:30.947Z,94461.00
2022-08-03T12:57:42.838Z,94453.00
2022-08-03T13:01:55.274Z,94451.00
2022-08-03T13:06:02.589Z,94456.00
2022-08-03T13:10:08.125Z,94450.00
2022-08-03T13:14:16.702Z,94454.00
2022-08-03T13:18:22.799Z,94455.00
2022-08-03T13:22:29.202Z,94459.00
2022-08-03T13:26:31.151Z,94454.00
2022-08-03T13:30:33.241Z,94457.00
2022-08-03T13:34:36.110Z,94449.00
2022-08-03T13:38:38.143Z,94452.00
2022-08-03T13:42:40.166Z,94447.00
2022-08-03T13:46:42.757Z,94442.00
2022-08-03T13:50:44.984Z,94435.00
2022-08-03T13:54:46.957Z,94432.00
2022-08-03T13:58:49.851Z,94427.00
2022-08-03T14:02:53.087Z,94428.00
2022-08-03T14:06:55.761Z,94426.00
2022-08-03T14:10:58.825Z,94425.00
2022-08-03T14:15:01.767Z,94419.00
2022-08-03T14:19:05.712Z,94422.00
2022-08-03T14:23:08.826Z,94408.00
2022-08-03T14:27:11.434Z,94414.00
2022-08-03T14:32:09.223Z,94423.00
2022-08-03T14:35:36.256Z,94412.00
2022-08-03T14:44:02.477Z,94409.00
2022-08-03T14:50:10.490Z,94411.00
2022-08-03T14:52:28.046Z,94403.00
2022-08-03T14:56:30.047Z,94401.00
2022-08-03T15:00:35.817Z,94396.00
2022-08-03T15:04:38.093Z,94400.00
2022-08-03T15:08:40.172Z,94399.00
2022-08-03T15:12:42.257Z,94396.00
2022-08-03T15:16:44.625Z,94400.00
2022-08-03T15:20:49.558Z,94396.00
2022-08-03T15:24:51.789Z,94396.00
2022-08-03T15:28:54.182Z,94396.00
2022-08-03T15:32:56.512Z,94392.00
2022-08-03T15:36:59.327Z,94389.00
2022-08-03T15:41:01.447Z,94392.00
2022-08-03T15:45:04.719Z,94383.00
2022-08-03T15:49:07.121Z,94378.00
2022-08-03T15:53:09.255Z,94387.00
2022-08-03T15:57:11.392Z,94388.00
2022-08-03T16:01:19.113Z,94384.00
2022-08-03T16:05:22.247Z,94386.00
2022-08-03T16:09:43.250Z,94377.00
2022-08-03T16:14:12.836Z,94377.00
2022-08-03T16:18:09.147Z,94374.00
2022-08-03T16:22:11.301Z,94367.00
2022-08-03T16:26:15.652Z,94361.00
2022-08-03T16:30:18.218Z,94357.00
2022-08-03T16:34:21.330Z,94363.00
2022-08-03T16:38:23.691Z,94359.00
2022-08-03T16:42:26.440Z,94356.00
2022-08-03T16:46:28.396Z,94361.00
2022-08-03T16:50:30.468Z,94364.00
2022-08-03T16:54:32.620Z,94372.00
2022-08-03T16:58:42.592Z,94360.00
2022-08-03T17:02:52.124Z,94376.00
2022-08-03T17:06:54.825Z,94369.00
2022-08-03T17:10:57.182Z,94372.00
2022-08-03T17:14:59.654Z,94370.00
2022-08-03T17:19:07.200Z,94375.00
2022-08-03T17:23:35.205Z,94382.00
2022-08-03T17:28:50.874Z,94374.00
2022-08-03T17:32:06.567Z,94385.00
2022-08-03T17:36:11.635Z,94389.00
2022-08-03T17:40:18.118Z,94390.00
2022-08-03T17:44:31.165Z,94383.00
2022-08-03T17:48:42.116Z,94386.00
2022-08-03T17:52:48.988Z,94394.00
2022-08-03T17:57:27.215Z,94390.00
2022-08-03T18:02:11.559Z,94381.00
2022-08-03T18:06:28.594Z,94391.00
2022-08-03T18:10:35.645Z,94391.00
2022-08-03T18:14:57.201Z,94391.00
2022-08-03T18:19:13.516Z,94392.00
2022-08-03T18:23:25.275Z,94396.00
2022-08-03T18:27:41.621Z,94397.00
2022-08-03T18:32:03.200Z,94392.00
2022-08-03T18:36:11.667Z,94391.00
2022-08-03T18:40:21.780Z,94389.00
2022-08-03T18:44:46.622Z,94396.00
2022-08-03T18:48:55.530Z,94392.00
2022-08-03T18:53:15.543Z,94400.00
2022-08-03T18:57:30.297Z,94395.00
2022-08-03T19:02:00.496Z,94401.00
2022-08-03T19:06:14.663Z,94406.00
2022-08-03T19:10:26.588Z,94409.00
2022-08-03T19:14:35.231Z,94404.00
2022-08-03T19:18:42.844Z,94406.00
2022-08-03T19:22:46.089Z,94405.00
2022-08-03T19:26:52.243Z,94407.00
2022-08-03T19:30:59.393Z,94412.00
2022-08-03T19:35:13.441Z,94411.00
2022-08-03T19:39:21.073Z,94417.00
2022-08-03T19:43:57.534Z,94413.00
2022-08-03T19:48:09.862Z,94417.00
2022-08-03T19:52:16.875Z,94417.00
2022-08-03T19:56:25.761Z,94415.00
2022-08-03T20:00:36.908Z,94414.00
2022-08-03T20:04:40.705Z,94418.00
2022-08-03T20:08:44.106Z,94416.00
2022-08-03T20:12:49.215Z,94408.00
2022-08-03T20:16:52.490Z,94411.00
2022-08-03T20:20:56.710Z,94409.00
2022-08-03T20:25:01.543Z,94402.00
2022-08-03T20:29:10.113Z,94414.00
2022-08-03T20:33:12.619Z,94409.00
2022-08-03T20:37:21.560Z,94402.00
2022-08-03T20:41:23.586Z,94406.00
2022-08-03T20:46:00.142Z,94404.00
2022-08-03T20:49:48.052Z,94400.00
2022-08-03T20:53:59.809Z,94403.00
2022-08-03T20:58:04.821Z,94389.00
2022-08-03T21:02:07.825Z,94394.00
2022-08-03T21:06:18.018Z,94399.00
2022-08-03T21:10:32.510Z,94394.00
2022-08-03T21:14:39.501Z,94392.00
2022-08-03T21:18:50.902Z,94400.00
2022-08-03T21:22:56.627Z,94393.00
2022-08-03T21:26:59.018Z,94403.00
2022-08-03T21:31:01.811Z,94403.00
2022-08-03T21:35:04.595Z,94405.00
2022-08-03T21:39:08.824Z,94408.00
2022-08-03T21:43:12.897Z,94409.00
2022-08-03T21:47:15.587Z,94411.00
2022-08-03T21:51:23.313Z,94412.00
2022-08-03T21:55:27.223Z,94407.00
2022-08-03T21:59:33.346Z,94410.00
2022-08-03T22:03:53.004Z,94407.00
2022-08-03T22:07:57.022Z,94405.00
2022-08-03T22:12:01.202Z,94406.00
2022-08-03T22:16:04.240Z,94401.00
2022-08-03T22:20:09.030Z,94406.00
2022-08-03T22:24:14.517Z,94407.00
2022-08-03T22:28:19.249Z,94408.00
2022-08-03T22:32:21.783Z,94407.00
2022-08-03T22:36:24.677Z,94406.00
2022-08-03T22:40:28.367Z,94399.00
2022-08-03T22:44:31.954Z,94398.00
2022-08-03T22:48:37.182Z,94404.00
2022-08-03T22:52:45.148Z,94401.00
2022-08-03T22:56:47.947Z,94396.00
2022-08-03T23:01:03.412Z,94393.00
2022-08-03T23:05:16.417Z,94394.00
2022-08-03T23:09:32.960Z,94393.00
2022-08-03T23:13:36.386Z,94392.00
2022-08-03T23:18:00.477Z,94390.00
2022-08-03T23:22:04.174Z,94386.00
2022-08-03T23:26:08.359Z,94395.00
2022-08-03T23:30:12.495Z,94393.00
2022-08-03T23:34:34.045Z,94388.00
2022-08-03T23:38:37.922Z,94391.00
2022-08-03T23:42:42.229Z,94392.00
2022-08-03T23:46:47.239Z,94394.00
2022-08-03T23:50:58.437Z,94384.00
2022-08-03T23:55:23.910Z,94383.00
2022-08-03T23:59:52.071Z,94384.00
